Time;durP1;ratioP1;P1;durP2;ratioP2;P2;SDS_P1;SDS_P2;PMS_P1;PMS_P2;Temp;Humidity;BMP_temperature;BMP_pressure;BME280_temperature;BME280_humidity;BME280_pressure;Samples;Min_cycle;Max_cycle;Signal;HPM_P1;HPM_P2
2024/01/23 00:01:06;;;;;;;2.58;2.00;;;;;;;;;;5104729;28;20259;-80
2024/01/23 00:03:34;;;;;;;2.17;1.70;;;;;;;;;;5097421;28;20799;-81
2024/01/23 00:06:03;;;;;;;4.13;2.28;;;;;;;;;;5101924;28;20221;-81
2024/01/23 00:08:30;;;;;;;4.70;1.67;;;;;;;;;;5104747;28;20212;-82
2024/01/23 00:10:58;;;;;;;2.15;1.67;;;;;;;;;;5100076;28;20287;-80
2024/01/23 00:13:25;;;;;;;3.13;1.50;;;;;;;;;;5104985;28;20291;-80
2024/01/23 00:15:53;;;;;;;2.92;1.50;;;;;;;;;;5095313;28;20319;-81
2024/01/23 00:18:20;;;;;;;2.00;1.50;;;;;;;;;;5095347;28;20287;-80
2024/01/23 00:20:47;;;;;;;1.42;1.25;;;;;;;;;;5096332;28;20204;-81
2024/01/23 00:23:16;;;;;;;3.13;1.52;;;;;;;;;;5084653;28;20268;-80
2024/01/23 00:25:44;;;;;;;3.03;1.63;;;;;;;;;;5101068;28;20315;-80
2024/01/23 00:28:11;;;;;;;2.15;1.52;;;;;;;;;;5104600;28;20347;-82
2024/01/23 00:30:39;;;;;;;2.17;1.42;;;;;;;;;;5104092;28;20196;-80
2024/01/23 00:33:06;;;;;;;3.40;1.10;;;;;;;;;;5096663;28;20271;-79
2024/01/23 00:35:34;;;;;;;1.40;1.10;;;;;;;;;;5104466;28;20217;-80
2024/01/23 00:38:01;;;;;;;2.90;1.30;;;;;;;;;;5102591;28;20279;-81
2024/01/23 00:40:30;;;;;;;2.17;1.17;;;;;;;;;;5099124;28;20227;-80
2024/01/23 00:42:57;;;;;;;2.05;1.60;;;;;;;;;;5086830;28;20330;-80
2024/01/23 00:45:25;;;;;;;1.85;1.30;;;;;;;;;;5104586;28;20634;-80
2024/01/23 00:47:52;;;;;;;4.25;2.10;;;;;;;;;;5104627;28;20268;-79
2024/01/23 00:50:20;;;;;;;3.33;1.58;;;;;;;;;;5104258;28;20280;-81
2024/01/23 00:52:47;;;;;;;3.33;1.30;;;;;;;;;;5103081;28;20299;-80
2024/01/23 00:55:15;;;;;;;2.10;1.65;;;;;;;;;;5089083;28;20706;-80
2024/01/23 00:57:44;;;;;;;3.28;1.38;;;;;;;;;;5104467;28;20283;-81
2024/01/23 01:00:13;;;;;;;2.47;1.50;;;;;;;;;;5089582;28;20208;-80
2024/01/23 01:02:40;;;;;;;5.55;1.98;;;;;;;;;;5095642;28;20201;-80
2024/01/23 01:05:08;;;;;;;2.22;1.30;;;;;;;;;;5092942;28;20319;-80
2024/01/23 01:07:36;;;;;;;3.33;1.85;;;;;;;;;;5103767;28;20292;-81
2024/01/23 01:10:04;;;;;;;3.85;1.63;;;;;;;;;;5102704;28;20302;-79
2024/01/23 01:12:33;;;;;;;3.50;1.65;;;;;;;;;;5084480;28;20201;-81
2024/01/23 01:15:02;;;;;;;3.00;1.58;;;;;;;;;;5084314;28;20284;-81
2024/01/23 01:17:32;;;;;;;2.95;1.38;;;;;;;;;;5100571;28;20258;-81
2024/01/23 01:19:59;;;;;;;1.38;1.27;;;;;;;;;;5104770;28;20204;-79
2024/01/23 01:22:26;;;;;;;2.55;1.40;;;;;;;;;;5103926;28;20268;-80
2024/01/23 01:24:54;;;;;;;1.98;1.38;;;;;;;;;;5103636;28;20705;-81
2024/01/23 01:27:21;;;;;;;2.25;1.52;;;;;;;;;;5097801;28;20235;-80
2024/01/23 01:29:49;;;;;;;2.00;1.42;;;;;;;;;;5091530;28;20687;-79
2024/01/23 01:32:17;;;;;;;5.35;2.13;;;;;;;;;;5102729;28;20291;-81
2024/01/23 01:34:45;;;;;;;4.25;1.45;;;;;;;;;;5098814;28;20294;-79
2024/01/23 01:37:12;;;;;;;2.13;1.50;;;;;;;;;;5114604;28;20265;-80
2024/01/23 01:39:40;;;;;;;2.42;1.60;;;;;;;;;;5104207;28;20647;-81
2024/01/23 01:42:07;;;;;;;3.60;1.60;;;;;;;;;;5095327;28;20288;-81
2024/01/23 01:44:35;;;;;;;2.33;1.25;;;;;;;;;;5093367;28;20319;-81
2024/01/23 01:47:03;;;;;;;4.22;1.75;;;;;;;;;;5096417;28;20236;-82
2024/01/23 01:49:32;;;;;;;2.00;1.35;;;;;;;;;;5103779;28;20218;-81
2024/01/23 01:51:59;;;;;;;5.78;1.95;;;;;;;;;;5104729;28;20770;-81
2024/01/23 01:54:28;;;;;;;3.80;1.63;;;;;;;;;;5108148;28;20283;-81
2024/01/23 01:56:59;;;;;;;2.63;1.20;;;;;;;;;;5107473;28;20203;-80
2024/01/23 01:59:26;;;;;;;4.72;1.25;;;;;;;;;;5102920;28;20235;-81
2024/01/23 02:01:54;;;;;;;1.38;0.90;;;;;;;;;;5104167;28;20267;-81
2024/01/23 02:04:22;;;;;;;1.35;1.00;;;;;;;;;;5102767;28;20292;-80
2024/01/23 02:06:50;;;;;;;1.23;1.13;;;;;;;;;;5093650;28;20229;-81
2024/01/23 02:09:18;;;;;;;2.25;1.25;;;;;;;;;;5089939;28;20649;-81
2024/01/23 02:11:58;;;;;;;3.72;1.23;;;;;;;;;;5106614;28;20267;-82
2024/01/23 02:14:26;;;;;;;2.72;1.35;;;;;;;;;;5107594;28;20235;-80
2024/01/23 02:16:53;;;;;;;0.90;0.80;;;;;;;;;;5098437;28;20260;-81
2024/01/23 02:19:21;;;;;;;2.10;1.30;;;;;;;;;;5093937;28;20232;-81
2024/01/23 02:21:49;;;;;;;1.95;1.20;;;;;;;;;;5097912;28;20338;-81
2024/01/23 02:24:18;;;;;;;4.47;1.60;;;;;;;;;;5105350;28;20292;-82
2024/01/23 02:26:46;;;;;;;1.85;1.20;;;;;;;;;;5099004;28;20323;-82
2024/01/23 02:29:14;;;;;;;2.22;1.00;;;;;;;;;;5087601;28;20291;-82
2024/01/23 02:31:42;;;;;;;2.40;1.65;;;;;;;;;;5103931;28;20296;-80
2024/01/23 02:34:09;;;;;;;1.63;1.08;;;;;;;;;;5100969;28;20207;-82
2024/01/23 02:36:39;;;;;;;1.27;1.17;;;;;;;;;;5106237;28;20311;-82
2024/01/23 02:39:07;;;;;;;0.90;0.90;;;;;;;;;;5103564;28;20204;-81
2024/01/23 02:41:36;;;;;;;2.30;1.13;;;;;;;;;;5106411;28;20264;-81
2024/01/23 02:44:03;;;;;;;1.80;1.48;;;;;;;;;;5098573;28;20296;-81
2024/01/23 02:46:31;;;;;;;2.78;1.05;;;;;;;;;;5102494;28;20247;-80
2024/01/23 02:48:58;;;;;;;0.82;0.82;;;;;;;;;;5101449;28;20293;-81
2024/01/23 02:51:25;;;;;;;1.88;1.40;;;;;;;;;;5094115;28;20291;-80
2024/01/23 02:53:53;;;;;;;1.13;1.02;;;;;;;;;;5101592;28;20271;-80
2024/01/23 02:56:20;;;;;;;1.77;1.08;;;;;;;;;;5103763;28;20280;-81
2024/01/23 02:58:49;;;;;;;0.82;0.82;;;;;;;;;;5100385;28;20269;-83
2024/01/23 03:01:16;;;;;;;2.03;1.10;;;;;;;;;;5106445;28;20271;-80
2024/01/23 03:03:44;;;;;;;6.43;1.25;;;;;;;;;;5091111;28;20273;-82
2024/01/23 03:06:11;;;;;;;0.70;0.70;;;;;;;;;;5096477;28;20295;-80
2024/01/23 03:08:39;;;;;;;0.63;0.63;;;;;;;;;;5103492;28;20276;-80
2024/01/23 03:11:06;;;;;;;0.50;0.50;;;;;;;;;;5101035;28;20291;-82
2024/01/23 03:13:34;;;;;;;1.08;0.90;;;;;;;;;;5105938;28;20218;-82
2024/01/23 03:16:03;;;;;;;3.20;1.40;;;;;;;;;;5104885;28;20642;-81
2024/01/23 03:18:30;;;;;;;1.10;1.10;;;;;;;;;;5085490;28;20696;-82
2024/01/23 03:20:58;;;;;;;0.77;0.77;;;;;;;;;;5085998;28;20205;-81
2024/01/23 03:23:25;;;;;;;1.10;1.00;;;;;;;;;;5097222;28;20291;-81
2024/01/23 03:25:53;;;;;;;1.27;1.10;;;;;;;;;;5106010;28;20300;-81
2024/01/23 03:28:21;;;;;;;1.17;1.08;;;;;;;;;;5103594;28;20272;-81
2024/01/23 03:30:51;;;;;;;0.88;0.88;;;;;;;;;;5085842;28;20204;-81
2024/01/23 03:33:21;;;;;;;1.10;0.73;;;;;;;;;;5075914;28;20567;-81
2024/01/23 03:35:49;;;;;;;1.10;0.75;;;;;;;;;;5075906;28;20315;-82
2024/01/23 03:38:16;;;;;;;0.90;0.90;;;;;;;;;;5095992;28;20666;-82
2024/01/23 03:40:44;;;;;;;1.23;1.00;;;;;;;;;;5095885;28;20199;-81
2024/01/23 03:43:12;;;;;;;2.05;1.10;;;;;;;;;;5095568;28;20287;-81
2024/01/23 03:45:39;;;;;;;1.85;1.70;;;;;;;;;;5096227;28;20262;-82
2024/01/23 03:48:07;;;;;;;3.05;1.52;;;;;;;;;;5095932;28;20655;-82
2024/01/23 03:50:35;;;;;;;6.65;3.08;;;;;;;;;;5095680;28;20218;-81
2024/01/23 03:53:03;;;;;;;5.53;3.05;;;;;;;;;;5096668;28;20854;-82
2024/01/23 03:55:30;;;;;;;2.30;2.08;;;;;;;;;;5096639;28;20288;-82
2024/01/23 03:57:58;;;;;;;3.67;2.50;;;;;;;;;;5096323;28;20284;-81
2024/01/23 04:00:28;;;;;;;7.18;2.60;;;;;;;;;;5094726;28;20210;-81
2024/01/23 04:02:56;;;;;;;6.03;2.45;;;;;;;;;;5094424;28;20188;-79
2024/01/23 04:05:23;;;;;;;6.15;2.38;;;;;;;;;;5094255;28;20586;-79
2024/01/23 04:07:52;;;;;;;6.28;2.83;;;;;;;;;;5093754;28;20226;-81
2024/01/23 04:10:20;;;;;;;3.03;2.00;;;;;;;;;;5094490;28;20291;-81
2024/01/23 04:12:47;;;;;;;8.00;2.47;;;;;;;;;;5094529;28;20204;-80
2024/01/23 04:15:15;;;;;;;6.35;2.75;;;;;;;;;;5093058;28;20710;-81
2024/01/23 04:17:42;;;;;;;5.22;2.10;;;;;;;;;;5093859;28;20355;-82
2024/01/23 04:20:11;;;;;;;3.55;2.30;;;;;;;;;;5094596;28;20273;-80
2024/01/23 04:22:38;;;;;;;5.18;2.63;;;;;;;;;;5093253;28;20329;-80
2024/01/23 04:25:08;;;;;;;7.03;2.55;;;;;;;;;;5094067;28;20248;-80
2024/01/23 04:27:36;;;;;;;3.70;1.90;;;;;;;;;;5093751;28;20311;-81
2024/01/23 04:30:03;;;;;;;4.78;2.50;;;;;;;;;;5093976;28;20770;-81
2024/01/23 04:32:31;;;;;;;6.97;2.70;;;;;;;;;;5093542;28;20291;-81
2024/01/23 04:34:58;;;;;;;3.20;1.90;;;;;;;;;;5093526;28;20226;-81
2024/01/23 04:37:26;;;;;;;9.55;2.05;;;;;;;;;;5093968;28;20218;-79
2024/01/23 04:39:53;;;;;;;7.18;2.50;;;;;;;;;;5093931;28;20208;-81
2024/01/23 04:42:22;;;;;;;7.07;2.25;;;;;;;;;;5093974;28;20200;-81
2024/01/23 04:44:50;;;;;;;9.52;3.20;;;;;;;;;;5093633;28;20227;-82
2024/01/23 04:47:17;;;;;;;4.28;2.60;;;;;;;;;;5093392;28;20226;-81
2024/01/23 04:49:45;;;;;;;4.53;2.65;;;;;;;;;;5093605;28;20203;-81
2024/01/23 04:52:12;;;;;;;5.40;2.35;;;;;;;;;;5093701;28;20206;-81
2024/01/23 04:54:41;;;;;;;8.30;2.90;;;;;;;;;;5093353;28;20290;-80
2024/01/23 04:57:08;;;;;;;5.60;2.85;;;;;;;;;;5094279;28;20249;-81
2024/01/23 04:59:37;;;;;;;2.72;2.17;;;;;;;;;;5093511;28;20196;-81
2024/01/23 05:02:05;;;;;;;4.00;1.85;;;;;;;;;;5093653;28;20204;-81
2024/01/23 05:04:33;;;;;;;3.03;2.10;;;;;;;;;;5094214;28;20651;-80
2024/01/23 05:07:01;;;;;;;4.28;2.22;;;;;;;;;;5095800;28;20226;-80
2024/01/23 05:09:31;;;;;;;7.10;2.05;;;;;;;;;;5103123;28;20188;-78
2024/01/23 05:11:58;;;;;;;4.05;2.47;;;;;;;;;;5119457;28;20204;-78
2024/01/23 05:14:26;;;;;;;4.75;2.50;;;;;;;;;;5110476;28;20200;-79
2024/01/23 05:16:54;;;;;;;8.80;3.03;;;;;;;;;;5103260;28;20215;-79
2024/01/23 05:19:22;;;;;;;5.10;2.63;;;;;;;;;;5106047;28;20223;-79
2024/01/23 05:21:49;;;;;;;7.72;2.83;;;;;;;;;;5104297;28;20200;-80
2024/01/23 05:24:17;;;;;;;5.55;2.78;;;;;;;;;;5103376;28;20268;-79
2024/01/23 05:26:45;;;;;;;5.90;2.55;;;;;;;;;;5105480;28;20224;-79
2024/01/23 05:29:12;;;;;;;9.68;3.05;;;;;;;;;;5106807;28;20726;-79
2024/01/23 05:31:40;;;;;;;6.75;2.25;;;;;;;;;;5106137;28;20292;-80
2024/01/23 05:34:07;;;;;;;6.45;2.10;;;;;;;;;;5124886;28;20207;-80
2024/01/23 05:36:35;;;;;;;7.40;2.50;;;;;;;;;;5112136;28;20287;-78
2024/01/23 05:39:02;;;;;;;6.72;2.88;;;;;;;;;;5106663;28;20296;-81
2024/01/23 05:41:31;;;;;;;13.45;3.58;;;;;;;;;;5094417;28;20205;-80
2024/01/23 05:43:58;;;;;;;5.88;2.35;;;;;;;;;;5094928;28;20260;-80
2024/01/23 05:46:25;;;;;;;5.18;2.50;;;;;;;;;;5106445;28;20303;-80
2024/01/23 05:48:53;;;;;;;9.50;2.42;;;;;;;;;;5106199;28;20234;-78
2024/01/23 05:51:22;;;;;;;4.22;2.58;;;;;;;;;;5107014;28;20671;-80
2024/01/23 05:53:49;;;;;;;5.82;2.47;;;;;;;;;;5105592;28;20268;-77
2024/01/23 05:56:16;;;;;;;10.35;3.58;;;;;;;;;;5106605;28;20291;-80
2024/01/23 05:58:44;;;;;;;5.80;1.85;;;;;;;;;;5104970;28;20231;-78
2024/01/23 06:01:12;;;;;;;3.85;2.13;;;;;;;;;;5097145;28;20264;-78
2024/01/23 06:03:40;;;;;;;12.40;2.92;;;;;;;;;;5106867;28;20204;-79
2024/01/23 06:06:07;;;;;;;6.10;3.33;;;;;;;;;;5104598;28;20236;-78
2024/01/23 06:08:36;;;;;;;6.28;2.55;;;;;;;;;;5085811;28;20216;-79
2024/01/23 06:11:04;;;;;;;4.15;2.38;;;;;;;;;;5095486;28;20287;-79
2024/01/23 06:13:31;;;;;;;4.45;1.88;;;;;;;;;;5093481;28;20229;-79
2024/01/23 06:15:59;;;;;;;2.28;1.60;;;;;;;;;;5102860;28;20312;-79
2024/01/23 06:18:26;;;;;;;5.68;2.58;;;;;;;;;;5106057;28;20291;-78
2024/01/23 06:20:54;;;;;;;4.80;1.90;;;;;;;;;;5105627;28;20268;-78
2024/01/23 06:23:21;;;;;;;8.40;2.58;;;;;;;;;;5105438;28;20208;-79
2024/01/23 06:25:50;;;;;;;6.32;3.00;;;;;;;;;;5105820;28;20715;-78
2024/01/23 06:28:18;;;;;;;3.67;2.25;;;;;;;;;;5112348;28;20310;-77
2024/01/23 06:30:46;;;;;;;4.30;1.95;;;;;;;;;;5112716;28;20303;-77
2024/01/23 06:33:13;;;;;;;4.32;1.88;;;;;;;;;;5112119;28;20272;-80
2024/01/23 06:35:40;;;;;;;7.03;2.58;;;;;;;;;;5105094;28;20311;-81
2024/01/23 06:38:08;;;;;;;4.03;2.15;;;;;;;;;;5104955;28;20299;-79
2024/01/23 06:40:35;;;;;;;6.38;2.65;;;;;;;;;;5105077;28;20287;-80
2024/01/23 06:43:05;;;;;;;6.13;2.90;;;;;;;;;;5105254;28;20208;-80
2024/01/23 06:45:32;;;;;;;9.57;2.30;;;;;;;;;;5104734;28;20566;-80
2024/01/23 06:48:00;;;;;;;7.15;2.22;;;;;;;;;;5105205;28;20296;-80
2024/01/23 06:50:29;;;;;;;4.35;2.15;;;;;;;;;;5106713;28;20204;-80
2024/01/23 06:52:57;;;;;;;8.73;2.78;;;;;;;;;;5105550;28;20204;-79
2024/01/23 06:55:25;;;;;;;6.57;2.40;;;;;;;;;;5105804;28;20314;-78
2024/01/23 06:57:52;;;;;;;9.07;2.05;;;;;;;;;;5104647;28;20192;-78
2024/01/23 07:00:21;;;;;;;9.40;2.45;;;;;;;;;;5105426;28;20286;-79
2024/01/23 07:02:49;;;;;;;4.28;2.30;;;;;;;;;;5105570;28;20204;-79
2024/01/23 07:05:16;;;;;;;5.68;2.80;;;;;;;;;;5086491;28;20339;-80
2024/01/23 07:07:44;;;;;;;6.57;2.05;;;;;;;;;;5086021;28;20205;-80
2024/01/23 07:10:12;;;;;;;4.75;1.95;;;;;;;;;;5095217;28;20208;-79
2024/01/23 07:12:39;;;;;;;9.35;2.30;;;;;;;;;;5098720;28;20742;-80
2024/01/23 07:15:07;;;;;;;7.03;2.33;;;;;;;;;;5105379;28;20224;-79
2024/01/23 07:17:36;;;;;;;5.43;2.67;;;;;;;;;;5104610;28;20201;-79
2024/01/23 07:20:06;;;;;;;7.05;2.10;;;;;;;;;;5105260;28;20291;-80
2024/01/23 07:22:34;;;;;;;4.80;2.42;;;;;;;;;;5104895;28;20185;-79
2024/01/23 07:25:03;;;;;;;6.72;2.58;;;;;;;;;;5091023;28;20220;-80
2024/01/23 07:27:31;;;;;;;14.65;2.83;;;;;;;;;;5105009;28;20710;-77
2024/01/23 07:29:58;;;;;;;4.47;2.72;;;;;;;;;;5104085;28;20323;-80
2024/01/23 07:32:26;;;;;;;9.68;3.05;;;;;;;;;;5101277;28;20205;-80
2024/01/23 07:34:55;;;;;;;5.82;2.90;;;;;;;;;;5086914;28;20301;-78
2024/01/23 07:37:23;;;;;;;5.75;2.22;;;;;;;;;;5085017;28;20213;-79
2024/01/23 07:39:51;;;;;;;5.53;2.35;;;;;;;;;;5100024;28;20875;-81
2024/01/23 07:42:19;;;;;;;6.38;2.42;;;;;;;;;;5097706;28;20216;-79
2024/01/23 07:44:49;;;;;;;5.93;2.60;;;;;;;;;;5101007;28;20228;-83
2024/01/23 07:47:17;;;;;;;5.30;2.53;;;;;;;;;;5091895;28;20231;-82
2024/01/23 07:49:44;;;;;;;7.50;2.15;;;;;;;;;;5096868;28;20251;-81
2024/01/23 07:52:15;;;;;;;4.55;2.72;;;;;;;;;;5102192;28;20197;-83
2024/01/23 07:54:42;;;;;;;6.97;2.97;;;;;;;;;;5100226;28;20201;-81
2024/01/23 07:57:10;;;;;;;9.00;3.22;;;;;;;;;;5100619;28;20346;-82
2024/01/23 07:59:39;;;;;;;6.95;2.40;;;;;;;;;;5101147;28;20283;-83
2024/01/23 08:02:06;;;;;;;6.95;3.08;;;;;;;;;;5101984;28;20207;-83
2024/01/23 08:04:34;;;;;;;7.25;2.65;;;;;;;;;;5096499;28;20639;-82
2024/01/23 08:07:01;;;;;;;6.95;2.50;;;;;;;;;;5097361;28;20212;-83
2024/01/23 08:09:30;;;;;;;3.88;1.92;;;;;;;;;;5092291;28;20308;-83
2024/01/23 08:11:58;;;;;;;8.52;2.83;;;;;;;;;;5098165;28;20686;-82
2024/01/23 08:14:26;;;;;;;6.65;2.45;;;;;;;;;;5102052;28;20200;-83
2024/01/23 08:16:53;;;;;;;6.80;2.20;;;;;;;;;;5093738;28;20200;-82
2024/01/23 08:19:23;;;;;;;7.95;2.70;;;;;;;;;;5097740;28;20264;-82
2024/01/23 08:21:51;;;;;;;3.65;1.80;;;;;;;;;;5100289;28;20578;-83
2024/01/23 08:24:18;;;;;;;5.35;2.83;;;;;;;;;;5097960;28;20200;-82
2024/01/23 08:26:52;;;;;;;6.47;2.53;;;;;;;;;;5093910;28;20311;-81
2024/01/23 08:29:20;;;;;;;7.90;3.28;;;;;;;;;;5103151;28;20264;-82
2024/01/23 08:31:47;;;;;;;6.55;2.67;;;;;;;;;;5097724;28;20207;-82
2024/01/23 08:34:15;;;;;;;3.17;2.30;;;;;;;;;;5098501;28;20628;-82
2024/01/23 08:36:42;;;;;;;6.63;2.53;;;;;;;;;;5098235;28;20252;-81
2024/01/23 08:39:10;;;;;;;5.68;3.00;;;;;;;;;;5099408;28;20202;-81
2024/01/23 08:41:38;;;;;;;3.83;2.60;;;;;;;;;;5099321;28;20208;-81
2024/01/23 08:44:06;;;;;;;4.35;2.47;;;;;;;;;;5098157;28;20234;-82
2024/01/23 08:46:34;;;;;;;13.13;4.03;;;;;;;;;;5099449;28;20644;-80
2024/01/23 08:49:01;;;;;;;7.80;3.40;;;;;;;;;;5098802;28;20319;-83
2024/01/23 08:51:29;;;;;;;9.00;3.58;;;;;;;;;;5093672;28;20206;-82
2024/01/23 08:53:56;;;;;;;4.40;2.60;;;;;;;;;;5098161;28;20268;-81
2024/01/23 08:56:25;;;;;;;7.47;3.75;;;;;;;;;;5098036;28;20702;-80
2024/01/23 08:58:53;;;;;;;7.43;3.40;;;;;;;;;;5098399;28;20666;-82
2024/01/23 09:01:22;;;;;;;10.75;3.47;;;;;;;;;;5100263;28;20200;-79
2024/01/23 09:03:49;;;;;;;10.10;3.97;;;;;;;;;;5101762;28;20196;-82
2024/01/23 09:06:16;;;;;;;6.15;3.83;;;;;;;;;;5101706;28;20315;-82
2024/01/23 09:08:44;;;;;;;10.65;3.25;;;;;;;;;;5102219;28;20202;-82
2024/01/23 09:11:11;;;;;;;4.15;2.28;;;;;;;;;;5102331;28;20227;-83
2024/01/23 09:13:39;;;;;;;14.43;3.45;;;;;;;;;;5096586;28;20197;-83
2024/01/23 09:16:08;;;;;;;8.80;3.67;;;;;;;;;;5101852;28;20252;-83
2024/01/23 09:18:37;;;;;;;15.07;3.63;;;;;;;;;;5102199;28;20196;-82
2024/01/23 09:21:05;;;;;;;9.05;3.88;;;;;;;;;;5101379;28;20215;-82
2024/01/23 09:23:32;;;;;;;3.33;2.15;;;;;;;;;;5098466;28;20321;-81
2024/01/23 09:26:00;;;;;;;4.03;2.55;;;;;;;;;;5097572;28;20216;-84
2024/01/23 09:28:27;;;;;;;5.68;2.67;;;;;;;;;;5105145;28;20224;-82
2024/01/23 09:30:55;;;;;;;5.22;2.90;;;;;;;;;;5104903;28;20219;-83
2024/01/23 09:33:22;;;;;;;8.65;3.15;;;;;;;;;;5102274;28;20311;-83
2024/01/23 09:35:51;;;;;;;4.10;2.60;;;;;;;;;;5106119;28;20247;-83
2024/01/23 09:38:18;;;;;;;14.77;3.92;;;;;;;;;;5101665;28;20283;-84
2024/01/23 09:40:51;;;;;;;8.32;3.67;;;;;;;;;;5106195;28;20306;-84
2024/01/23 09:43:21;;;;;;;7.65;2.60;;;;;;;;;;5101109;28;20204;-83
2024/01/23 09:45:49;;;;;;;6.13;3.53;;;;;;;;;;5101325;28;20312;-83
2024/01/23 09:48:16;;;;;;;11.05;4.28;;;;;;;;;;5101781;28;20220;-84
2024/01/23 09:50:45;;;;;;;5.88;2.63;;;;;;;;;;5102051;28;20259;-84
2024/01/23 09:53:14;;;;;;;8.93;3.58;;;;;;;;;;5102850;28;20200;-83
2024/01/23 09:55:42;;;;;;;4.68;2.78;;;;;;;;;;5101404;28;20275;-84
2024/01/23 09:58:10;;;;;;;5.70;2.90;;;;;;;;;;5101018;28;20228;-84
2024/01/23 10:00:38;;;;;;;7.57;2.80;;;;;;;;;;5101451;28;20207;-84
2024/01/23 10:03:08;;;;;;;11.30;4.40;;;;;;;;;;5105465;28;20200;-83
2024/01/23 10:05:36;;;;;;;6.75;2.70;;;;;;;;;;5101472;28;20306;-84
2024/01/23 10:08:05;;;;;;;3.28;2.30;;;;;;;;;;5102574;28;20200;-82
2024/01/23 10:10:36;;;;;;;5.13;2.80;;;;;;;;;;5102691;28;20231;-84
2024/01/23 10:13:04;;;;;;;11.50;2.88;;;;;;;;;;5089057;28;20252;-79
2024/01/23 10:15:32;;;;;;;8.55;3.25;;;;;;;;;;5100663;28;20319;-86
2024/01/23 10:17:59;;;;;;;7.68;2.78;;;;;;;;;;5097567;28;20275;-81
2024/01/23 10:20:27;;;;;;;7.13;3.10;;;;;;;;;;5097951;28;20279;-83
2024/01/23 10:22:56;;;;;;;6.88;2.90;;;;;;;;;;5097232;28;20291;-83
2024/01/23 10:25:25;;;;;;;7.85;2.78;;;;;;;;;;5101426;28;20234;-84
2024/01/23 10:27:56;;;;;;;7.35;2.67;;;;;;;;;;5107455;28;20234;-84
2024/01/23 10:30:23;;;;;;;7.53;3.08;;;;;;;;;;5102846;28;20220;-82
2024/01/23 10:32:51;;;;;;;9.73;4.03;;;;;;;;;;5101368;28;20242;-82
2024/01/23 10:35:18;;;;;;;7.25;2.92;;;;;;;;;;5097285;28;20224;-81
2024/01/23 10:37:46;;;;;;;3.90;2.72;;;;;;;;;;5097755;28;20302;-82
2024/01/23 10:40:23;;;;;;;5.40;2.75;;;;;;;;;;5098794;28;20208;-81
2024/01/23 10:42:52;;;;;;;5.43;2.47;;;;;;;;;;5098496;28;20236;-80
2024/01/23 10:45:20;;;;;;;7.53;2.50;;;;;;;;;;5102558;28;20247;-84
2024/01/23 10:47:51;;;;;;;8.15;3.25;;;;;;;;;;5103706;28;20204;-82
2024/01/23 10:50:20;;;;;;;6.78;3.08;;;;;;;;;;5105607;28;20207;-80
2024/01/23 10:52:49;;;;;;;10.38;3.15;;;;;;;;;;5110616;28;20215;-80
2024/01/23 10:55:18;;;;;;;11.25;2.67;;;;;;;;;;5101643;28;20216;-81
2024/01/23 10:57:47;;;;;;;11.93;4.68;;;;;;;;;;5100105;28;20212;-82
2024/01/23 11:00:19;;;;;;;8.77;3.40;;;;;;;;;;5097081;28;20586;-81
2024/01/23 11:02:53;;;;;;;8.23;3.63;;;;;;;;;;5097382;28;20192;-81
2024/01/23 11:05:28;;;;;;;6.03;2.83;;;;;;;;;;5097129;28;20221;-81
2024/01/23 11:07:59;;;;;;;21.80;6.40;;;;;;;;;;5099432;28;20206;-80
2024/01/23 11:10:33;;;;;;;5.57;4.30;;;;;;;;;;5102271;28;20276;-80
2024/01/23 11:13:11;;;;;;;6.57;3.50;;;;;;;;;;5100938;28;20625;-80
2024/01/23 11:15:40;;;;;;;7.00;3.05;;;;;;;;;;5093600;28;20315;-79
2024/01/23 11:18:27;;;;;;;4.65;2.00;;;;;;;;;;5094601;28;20578;-79
2024/01/23 11:21:17;;;;;;;6.72;3.42;;;;;;;;;;5102592;28;20196;-80
2024/01/23 11:23:46;;;;;;;5.15;2.63;;;;;;;;;;5098561;28;20228;-79
2024/01/23 11:26:18;;;;;;;3.33;1.60;;;;;;;;;;5099327;28;20372;-79
2024/01/23 11:28:48;;;;;;;6.45;2.60;;;;;;;;;;5096874;28;20196;-81
2024/01/23 11:31:21;;;;;;;5.28;2.03;;;;;;;;;;5100223;28;20299;-81
2024/01/23 11:33:49;;;;;;;3.35;2.03;;;;;;;;;;5099700;28;20196;-81
2024/01/23 11:36:23;;;;;;;5.35;2.35;;;;;;;;;;5100676;28;20228;-80
2024/01/23 11:38:51;;;;;;;5.05;2.55;;;;;;;;;;5101983;28;20247;-81
2024/01/23 11:41:23;;;;;;;3.95;2.35;;;;;;;;;;5101673;28;20264;-81
2024/01/23 11:43:53;;;;;;;4.93;2.00;;;;;;;;;;5102141;28;20204;-80
2024/01/23 11:46:23;;;;;;;1.70;1.60;;;;;;;;;;5102389;28;20695;-79
2024/01/23 11:48:52;;;;;;;4.28;1.88;;;;;;;;;;5101777;28;20207;-79
2024/01/23 11:51:20;;;;;;;6.70;2.85;;;;;;;;;;5106147;28;20759;-80
2024/01/23 11:53:49;;;;;;;9.90;2.55;;;;;;;;;;5097946;28;20271;-80
2024/01/23 11:56:17;;;;;;;9.77;3.00;;;;;;;;;;5100923;28;20224;-84
2024/01/23 11:58:44;;;;;;;10.07;2.60;;;;;;;;;;5100581;28;20272;-81
2024/01/23 12:01:15;;;;;;;5.22;2.13;;;;;;;;;;5100433;28;20231;-82
2024/01/23 12:03:51;;;;;;;7.78;1.92;;;;;;;;;;5101675;28;20208;-81
2024/01/23 12:06:20;;;;;;;4.00;2.15;;;;;;;;;;5101724;28;20228;-82
2024/01/23 12:08:48;;;;;;;4.88;2.33;;;;;;;;;;5104095;28;20287;-82
2024/01/23 12:11:16;;;;;;;8.50;2.80;;;;;;;;;;5099199;28;20230;-82
2024/01/23 12:13:45;;;;;;;6.85;2.33;;;;;;;;;;5100186;28;20234;-83
2024/01/23 12:16:13;;;;;;;7.22;2.25;;;;;;;;;;5100617;28;20244;-82
2024/01/23 12:18:41;;;;;;;6.88;2.97;;;;;;;;;;5103519;28;20618;-80
2024/01/23 12:21:11;;;;;;;9.27;2.80;;;;;;;;;;5101450;28;20571;-79
2024/01/23 12:23:39;;;;;;;6.20;2.60;;;;;;;;;;5102417;28;20201;-80
2024/01/23 12:26:06;;;;;;;10.52;2.75;;;;;;;;;;5100746;28;20223;-81
2024/01/23 12:28:36;;;;;;;4.95;2.40;;;;;;;;;;5101708;28;20246;-81
2024/01/23 12:31:14;;;;;;;5.80;2.78;;;;;;;;;;5102647;28;20220;-80
2024/01/23 12:33:41;;;;;;;3.55;2.08;;;;;;;;;;5101792;28;20230;-80
2024/01/23 12:36:16;;;;;;;5.55;2.67;;;;;;;;;;5097192;28;20303;-79
2024/01/23 12:38:44;;;;;;;7.60;2.90;;;;;;;;;;5105564;28;20196;-79
2024/01/23 12:41:11;;;;;;;6.32;3.83;;;;;;;;;;5104436;28;20279;-79
2024/01/23 12:43:39;;;;;;;13.27;2.90;;;;;;;;;;5103772;28;20287;-79
2024/01/23 12:46:06;;;;;;;4.50;3.15;;;;;;;;;;5102078;28;20228;-78
2024/01/23 12:48:34;;;;;;;4.20;2.50;;;;;;;;;;5091930;28;20299;-79
2024/01/23 12:51:01;;;;;;;6.82;2.90;;;;;;;;;;5101983;28;20200;-80
2024/01/23 12:53:30;;;;;;;6.53;3.10;;;;;;;;;;5101894;28;20260;-78
2024/01/23 12:55:57;;;;;;;7.43;2.83;;;;;;;;;;5093631;28;20286;-81
2024/01/23 12:58:25;;;;;;;5.60;2.88;;;;;;;;;;5104862;28;20287;-80
2024/01/23 13:00:53;;;;;;;9.57;2.78;;;;;;;;;;5100301;28;20290;-81
2024/01/23 13:03:20;;;;;;;9.55;3.28;;;;;;;;;;5099008;28;20291;-80
2024/01/23 13:05:47;;;;;;;5.07;2.90;;;;;;;;;;5098865;28;20224;-81
2024/01/23 13:08:15;;;;;;;9.27;2.70;;;;;;;;;;5090271;28;20315;-80
2024/01/23 13:10:44;;;;;;;5.28;3.28;;;;;;;;;;5098636;28;20205;-79
2024/01/23 13:13:12;;;;;;;4.90;2.58;;;;;;;;;;5098040;28;20224;-79
2024/01/23 13:15:39;;;;;;;5.07;2.28;;;;;;;;;;5097713;28;20247;-79
2024/01/23 13:18:07;;;;;;;5.85;2.40;;;;;;;;;;5100930;28;20204;-80
2024/01/23 13:20:35;;;;;;;5.50;2.75;;;;;;;;;;5096806;28;20232;-82
2024/01/23 13:23:02;;;;;;;3.95;2.35;;;;;;;;;;5101019;28;20632;-83
2024/01/23 13:25:30;;;;;;;5.55;3.15;;;;;;;;;;5100241;28;20224;-80
2024/01/23 13:27:58;;;;;;;7.07;3.22;;;;;;;;;;5093328;28;20295;-81
2024/01/23 13:30:29;;;;;;;6.32;3.00;;;;;;;;;;5102369;28;20295;-80
2024/01/23 13:32:59;;;;;;;4.43;2.20;;;;;;;;;;5100712;28;20671;-81
2024/01/23 13:35:27;;;;;;;6.65;2.70;;;;;;;;;;5094815;28;20754;-81
2024/01/23 13:37:55;;;;;;;4.75;2.65;;;;;;;;;;5095182;28;20219;-81
2024/01/23 13:40:23;;;;;;;3.97;2.50;;;;;;;;;;5094764;28;20200;-81
2024/01/23 13:42:52;;;;;;;9.35;2.42;;;;;;;;;;5094648;28;20638;-80
2024/01/23 13:45:21;;;;;;;4.97;2.60;;;;;;;;;;5094988;28;20600;-82
2024/01/23 13:47:49;;;;;;;6.78;2.47;;;;;;;;;;5097869;28;20655;-81
2024/01/23 13:50:17;;;;;;;3.35;2.65;;;;;;;;;;5099863;28;20236;-80
2024/01/23 13:52:48;;;;;;;5.20;1.80;;;;;;;;;;5098954;28;20220;-83
2024/01/23 13:55:16;;;;;;;6.20;2.28;;;;;;;;;;5099326;28;20216;-80
2024/01/23 13:57:44;;;;;;;7.90;2.95;;;;;;;;;;5098908;28;20200;-81
2024/01/23 14:00:12;;;;;;;8.65;3.38;;;;;;;;;;5098277;28;20292;-81
2024/01/23 14:02:41;;;;;;;4.00;2.35;;;;;;;;;;5098977;28;20607;-81
2024/01/23 14:05:11;;;;;;;6.57;2.50;;;;;;;;;;5098820;28;20216;-82
2024/01/23 14:07:40;;;;;;;4.53;2.13;;;;;;;;;;5099612;28;20197;-81
2024/01/23 14:10:15;;;;;;;8.45;2.70;;;;;;;;;;5086011;28;20255;-81
2024/01/23 14:12:43;;;;;;;4.45;2.45;;;;;;;;;;5078823;28;20212;-80
2024/01/23 14:15:11;;;;;;;6.50;2.70;;;;;;;;;;5077869;28;20231;-80
2024/01/23 14:17:39;;;;;;;5.50;2.00;;;;;;;;;;5078379;28;20201;-79
2024/01/23 14:20:11;;;;;;;5.18;2.10;;;;;;;;;;5079178;28;20219;-82
2024/01/23 14:22:38;;;;;;;5.13;1.80;;;;;;;;;;5079451;28;20578;-80
2024/01/23 14:25:09;;;;;;;5.05;2.00;;;;;;;;;;5091575;28;20220;-81
2024/01/23 14:27:37;;;;;;;5.20;2.50;;;;;;;;;;5098592;28;20200;-80
2024/01/23 14:30:05;;;;;;;4.35;2.15;;;;;;;;;;5097280;28;20227;-80
2024/01/23 14:32:33;;;;;;;3.47;2.58;;;;;;;;;;5098708;28;20229;-80
2024/01/23 14:35:00;;;;;;;6.47;1.73;;;;;;;;;;5095717;28;20253;-81
2024/01/23 14:37:29;;;;;;;5.50;2.20;;;;;;;;;;5099201;28;20978;-79
2024/01/23 14:39:56;;;;;;;4.18;2.13;;;;;;;;;;5099004;28;20210;-81
2024/01/23 14:42:24;;;;;;;4.45;1.90;;;;;;;;;;5100873;28;20568;-81
2024/01/23 14:44:53;;;;;;;5.05;1.95;;;;;;;;;;5102736;28;20219;-82
2024/01/23 14:47:21;;;;;;;3.83;1.63;;;;;;;;;;5103624;28;20231;-81
2024/01/23 14:49:49;;;;;;;3.50;1.80;;;;;;;;;;5092662;28;20752;-81